createdAt,value
2016-08-03T00:00:40.345Z,1006.48
2016-08-03T00:01:40.353Z,1006.47
2016-08-03T00:02:40.359Z,1006.47
2016-08-03T00:03:40.365Z,1006.47
2016-08-03T00:04:40.369Z,1006.47
2016-08-03T00:05:40.375Z,1006.47
2016-08-03T00:06:41.506Z,1006.48
2016-08-03T00:07:40.383Z,1006.46
2016-08-03T00:08:40.387Z,1006.45
2016-08-03T00:09:40.395Z,1006.43
2016-08-03T00:10:40.399Z,1006.44
2016-08-03T00:11:40.405Z,1006.41
2016-08-03T00:12:40.459Z,1006.43
2016-08-03T00:14:40.421Z,1006.33
2016-08-03T00:15:40.427Z,1006.35
2016-08-03T00:16:40.430Z,1006.34
2016-08-03T00:17:40.437Z,1006.34
2016-08-03T00:18:40.441Z,1006.35
2016-08-03T00:19:40.447Z,1006.34
2016-08-03T00:20:40.500Z,1006.3
2016-08-03T00:21:40.456Z,1006.27
2016-08-03T00:22:40.459Z,1006.28
2016-08-03T00:23:40.467Z,1006.31
2016-08-03T00:25:40.477Z,1006.3
2016-08-03T00:26:40.491Z,1006.27
2016-08-03T00:27:40.487Z,1006.33
2016-08-03T00:28:41.596Z,1006.28
2016-08-03T00:29:40.498Z,1006.25
2016-08-03T00:30:40.504Z,1006.24
2016-08-03T00:31:40.512Z,1006.29
2016-08-03T00:32:40.515Z,1006.25
2016-08-03T00:33:40.520Z,1006.27
2016-08-03T00:34:40.575Z,1006.28
2016-08-03T00:35:40.530Z,1006.23
2016-08-03T00:36:40.536Z,1006.25
2016-08-03T00:37:40.541Z,1006.25
2016-08-03T00:38:40.545Z,1006.18
2016-08-03T00:39:41.674Z,1006.19
2016-08-03T00:40:40.553Z,1006.09
2016-08-03T00:41:40.560Z,1006.11
2016-08-03T00:42:40.567Z,1006.13
2016-08-03T00:44:40.576Z,1006.13
2016-08-03T00:45:40.582Z,1006.14
2016-08-03T00:46:40.586Z,1006.1
2016-08-03T00:47:40.593Z,1006.11
2016-08-03T00:48:40.600Z,1006.1
2016-08-03T00:49:40.604Z,1006.09
2016-08-03T00:50:40.609Z,1006.11
2016-08-03T00:51:40.614Z,1006.1
2016-08-03T00:52:40.619Z,1006.11
2016-08-03T00:53:40.626Z,1006.08
2016-08-03T00:55:40.637Z,1006.09
2016-08-03T00:56:40.639Z,1006.03
2016-08-03T00:57:40.646Z,1006.06
2016-08-03T00:59:40.656Z,1006.04
2016-08-03T01:00:40.663Z,1005.98
2016-08-03T01:01:40.670Z,1006.03
2016-08-03T01:02:40.673Z,1006.03
2016-08-03T01:03:40.679Z,1006.03
2016-08-03T01:04:40.685Z,1006.01
2016-08-03T01:05:40.690Z,1006.05
2016-08-03T01:06:40.696Z,1005.99
2016-08-03T01:07:40.700Z,1006.01
2016-08-03T01:08:40.706Z,1006.04
2016-08-03T01:09:40.711Z,1006.08
2016-08-03T01:10:40.717Z,1006.04
2016-08-03T01:11:40.723Z,1006.04
2016-08-03T01:12:40.729Z,1006.03
2016-08-03T01:13:40.731Z,1006.03
2016-08-03T01:14:40.738Z,1005.99
2016-08-03T01:15:40.745Z,1006.05
2016-08-03T01:16:40.748Z,1006.02
2016-08-03T01:17:40.754Z,1006.02
2016-08-03T01:18:40.758Z,1006
2016-08-03T01:19:40.765Z,1006
2016-08-03T01:20:40.769Z,1006.03
2016-08-03T01:21:40.773Z,1006
2016-08-03T01:22:40.780Z,1006
2016-08-03T01:23:40.786Z,1005.97
2016-08-03T01:24:40.791Z,1005.96
2016-08-03T01:25:40.796Z,1005.97
2016-08-03T01:26:40.802Z,1005.95
2016-08-03T01:27:40.806Z,1005.98
2016-08-03T01:28:40.812Z,1005.99
2016-08-03T01:29:40.817Z,1005.97
2016-08-03T01:30:40.823Z,1006
2016-08-03T01:31:40.827Z,1005.99
2016-08-03T01:32:40.833Z,1005.99
2016-08-03T01:33:40.838Z,1005.97
2016-08-03T01:34:41.974Z,1005.96
2016-08-03T01:35:40.848Z,1005.98
2016-08-03T01:36:40.854Z,1005.99
2016-08-03T01:37:40.858Z,1005.98
2016-08-03T01:38:40.865Z,1005.97
2016-08-03T01:39:40.869Z,1005.94
2016-08-03T01:40:40.874Z,1005.96
2016-08-03T01:41:40.879Z,1005.98
2016-08-03T01:42:40.883Z,1005.93
2016-08-03T01:43:40.889Z,1005.96
2016-08-03T01:44:40.895Z,1005.94
2016-08-03T01:45:42.022Z,1005.89
2016-08-03T01:46:40.905Z,1005.85
2016-08-03T01:47:40.911Z,1005.84
2016-08-03T01:48:40.916Z,1005.81
2016-08-03T01:49:40.922Z,1005.83
2016-08-03T01:50:40.926Z,1005.82
2016-08-03T01:51:40.931Z,1005.83
2016-08-03T01:52:40.936Z,1005.79
2016-08-03T01:53:40.940Z,1005.8
2016-08-03T01:54:40.947Z,1005.8
2016-08-03T01:55:40.953Z,1005.79
2016-08-03T01:56:40.958Z,1005.79
2016-08-03T01:57:40.963Z,1005.73
2016-08-03T01:58:40.969Z,1005.77
2016-08-03T01:59:40.973Z,1005.74
2016-08-03T02:00:40.980Z,1005.77
2016-08-03T02:01:40.983Z,1005.77
2016-08-03T02:02:40.988Z,1005.73
2016-08-03T02:03:40.996Z,1005.72
2016-08-03T02:04:40.999Z,1005.69
2016-08-03T02:05:41.004Z,1005.65
2016-08-03T02:06:41.009Z,1005.68
2016-08-03T02:07:41.014Z,1005.68
2016-08-03T02:08:41.020Z,1005.68
2016-08-03T02:09:41.027Z,1005.72
2016-08-03T02:10:41.032Z,1005.74
2016-08-03T02:11:41.038Z,1005.73
2016-08-03T02:12:41.042Z,1005.71
2016-08-03T02:13:41.049Z,1005.67
2016-08-03T02:14:41.052Z,1005.7
2016-08-03T02:15:41.057Z,1005.66
2016-08-03T02:16:41.064Z,1005.7
2016-08-03T02:17:41.069Z,1005.67
2016-08-03T02:18:41.076Z,1005.64
2016-08-03T02:19:41.086Z,1005.69
2016-08-03T02:20:41.082Z,1005.7
2016-08-03T02:21:41.089Z,1005.7
2016-08-03T02:22:41.094Z,1005.66
2016-08-03T02:23:41.099Z,1005.73
2016-08-03T02:24:41.105Z,1005.68
2016-08-03T02:25:41.161Z,1005.66
2016-08-03T02:26:41.114Z,1005.67
2016-08-03T02:27:41.118Z,1005.68
2016-08-03T02:28:41.126Z,1005.67
2016-08-03T02:29:41.129Z,1005.67
2016-08-03T02:30:41.135Z,1005.65
2016-08-03T02:31:41.141Z,1005.6
2016-08-03T02:32:41.144Z,1005.59
2016-08-03T02:33:41.152Z,1005.57
2016-08-03T02:34:41.157Z,1005.58
2016-08-03T02:35:41.213Z,1005.61
2016-08-03T02:36:41.168Z,1005.57
2016-08-03T02:37:41.173Z,1005.59
2016-08-03T02:38:41.179Z,1005.59
2016-08-03T02:39:41.183Z,1005.58
2016-08-03T02:40:41.188Z,1005.55
2016-08-03T02:41:41.195Z,1005.55
2016-08-03T02:42:41.199Z,1005.53
2016-08-03T02:43:41.206Z,1005.6
2016-08-03T02:44:41.209Z,1005.56
2016-08-03T02:45:41.214Z,1005.51
2016-08-03T02:46:41.219Z,1005.54
2016-08-03T02:47:41.225Z,1005.54
2016-08-03T02:48:41.232Z,1005.5
2016-08-03T02:49:41.236Z,1005.51
2016-08-03T02:50:41.242Z,1005.53
2016-08-03T02:51:41.248Z,1005.5
2016-08-03T02:52:41.252Z,1005.53
2016-08-03T02:53:41.258Z,1005.51
2016-08-03T02:54:41.264Z,1005.48
2016-08-03T02:55:41.269Z,1005.49
2016-08-03T02:56:41.274Z,1005.49
2016-08-03T02:57:41.281Z,1005.48
2016-08-03T02:58:41.284Z,1005.48
2016-08-03T02:59:41.289Z,1005.43
2016-08-03T03:00:41.295Z,1005.42
2016-08-03T03:01:41.300Z,1005.43
2016-08-03T03:02:41.307Z,1005.38
2016-08-03T03:03:41.314Z,1005.43
2016-08-03T03:04:41.316Z,1005.42
2016-08-03T03:05:41.321Z,1005.39
2016-08-03T03:06:41.325Z,1005.34
2016-08-03T03:07:41.331Z,1005.34
2016-08-03T03:08:41.336Z,1005.32
2016-08-03T03:09:41.343Z,1005.32
2016-08-03T03:10:41.346Z,1005.3
2016-08-03T03:11:41.352Z,1005.28
2016-08-03T03:12:41.357Z,1005.26
2016-08-03T03:13:41.364Z,1005.29
2016-08-03T03:14:41.367Z,1005.22
2016-08-03T03:15:41.373Z,1005.22
2016-08-03T03:16:41.378Z,1005.21
2016-08-03T03:17:41.384Z,1005.27
2016-08-03T03:18:41.389Z,1005.25
2016-08-03T03:19:41.395Z,1005.28
2016-08-03T03:20:41.401Z,1005.25
2016-08-03T03:21:41.404Z,1005.24
2016-08-03T03:22:41.409Z,1005.26
2016-08-03T03:23:41.416Z,1005.31
2016-08-03T03:24:44.025Z,1005.31
2016-08-03T03:25:41.426Z,1005.29
2016-08-03T03:26:41.430Z,1005.35
2016-08-03T03:27:41.438Z,1005.32
2016-08-03T03:28:41.441Z,1005.29
2016-08-03T03:29:41.446Z,1005.32
2016-08-03T03:30:41.452Z,1005.32
2016-08-03T03:31:41.458Z,1005.3
2016-08-03T03:32:41.462Z,1005.3
2016-08-03T03:33:41.466Z,1005.25
2016-08-03T03:34:41.474Z,1005.31
2016-08-03T03:35:41.478Z,1005.28
2016-08-03T03:36:41.482Z,1005.24
2016-08-03T03:37:41.488Z,1005.25
2016-08-03T03:38:41.493Z,1005.24
2016-08-03T03:39:41.498Z,1005.2
2016-08-03T03:40:41.504Z,1005.24
2016-08-03T03:41:41.508Z,1005.21
2016-08-03T03:42:41.517Z,1005.16
2016-08-03T03:43:41.516Z,1005.15
2016-08-03T03:44:41.524Z,1005.15
2016-08-03T03:45:41.532Z,1005.17
2016-08-03T03:46:41.536Z,1005.15
2016-08-03T03:47:41.700Z,1005.14
2016-08-03T03:48:41.545Z,1005.16
2016-08-03T03:49:41.550Z,1005.14
2016-08-03T03:50:41.554Z,1005.11
2016-08-03T03:51:41.561Z,1005.13
2016-08-03T03:52:41.565Z,1005.17
2016-08-03T03:53:41.571Z,1005.14
2016-08-03T03:54:41.575Z,1005.12
2016-08-03T03:55:41.581Z,1005.11
2016-08-03T03:56:41.585Z,1005.1
2016-08-03T03:57:41.591Z,1005.14
2016-08-03T03:58:41.596Z,1005.11
2016-08-03T03:59:41.601Z,1005.09
2016-08-03T04:00:41.606Z,1005.09
2016-08-03T04:01:41.612Z,1005.12
2016-08-03T04:02:41.616Z,1005.1
2016-08-03T04:03:41.622Z,1005.06
2016-08-03T04:04:41.626Z,1005.04
2016-08-03T04:05:41.634Z,1005.07
2016-08-03T04:06:41.638Z,1005.04
2016-08-03T04:07:41.642Z,1005.01
2016-08-03T04:08:41.648Z,1005.04
2016-08-03T04:09:41.655Z,1005.03
2016-08-03T04:10:41.661Z,1005.06
2016-08-03T04:11:41.665Z,1005.04
2016-08-03T04:12:41.669Z,1005.04
2016-08-03T04:13:41.676Z,1005.03
2016-08-03T04:14:41.682Z,1005.03
2016-08-03T04:15:41.686Z,1005.08
2016-08-03T04:16:41.691Z,1005.04
2016-08-03T04:17:41.697Z,1005.06
2016-08-03T04:18:41.704Z,1005.05
2016-08-03T04:19:41.706Z,1005.04
2016-08-03T04:20:41.814Z,1005.01
2016-08-03T04:21:41.969Z,1005.01
2016-08-03T04:22:41.724Z,1005.03
2016-08-03T04:23:41.728Z,1005.04
2016-08-03T04:24:41.734Z,1005.01
2016-08-03T04:25:41.742Z,1005.03
2016-08-03T04:26:41.746Z,1004.99
2016-08-03T04:27:41.752Z,1005.01
2016-08-03T04:28:41.756Z,1005
2016-08-03T04:29:41.760Z,1005.03
2016-08-03T04:30:41.765Z,1004.99
2016-08-03T04:31:41.771Z,1005.03
2016-08-03T04:32:42.028Z,1005.08
2016-08-03T04:33:41.783Z,1005
2016-08-03T04:34:41.787Z,1005.02
2016-08-03T04:35:41.793Z,1004.97
2016-08-03T04:36:41.797Z,1005.04
2016-08-03T04:37:41.803Z,1004.98
2016-08-03T04:38:41.807Z,1005
2016-08-03T04:39:41.814Z,1004.99
2016-08-03T04:40:41.869Z,1004.98
2016-08-03T04:41:41.822Z,1004.94
2016-08-03T04:42:41.828Z,1004.97
2016-08-03T04:43:42.135Z,1004.98
2016-08-03T04:45:41.845Z,1004.91
2016-08-03T04:46:41.851Z,1004.88
2016-08-03T04:47:41.857Z,1004.92
2016-08-03T04:48:41.861Z,1004.91
2016-08-03T04:49:41.867Z,1004.93
2016-08-03T04:50:41.872Z,1004.91
2016-08-03T04:51:41.878Z,1004.88
2016-08-03T04:52:41.884Z,1004.89
2016-08-03T04:53:41.889Z,1004.87
2016-08-03T04:54:42.295Z,1004.88
2016-08-03T04:55:41.897Z,1004.87
2016-08-03T04:56:41.905Z,1004.89
2016-08-03T04:57:42.006Z,1004.91
2016-08-03T04:58:41.914Z,1004.93
2016-08-03T04:59:41.921Z,1004.93
2016-08-03T05:00:41.929Z,1004.94
2016-08-03T05:01:41.949Z,1004.95
2016-08-03T05:02:41.937Z,1004.96
2016-08-03T05:03:41.942Z,1004.94
2016-08-03T05:04:41.948Z,1004.97
2016-08-03T05:05:42.653Z,1004.96
2016-08-03T05:06:41.959Z,1005
2016-08-03T05:07:41.965Z,1004.97
2016-08-03T05:08:41.969Z,1004.92
2016-08-03T05:09:41.975Z,1004.95
2016-08-03T05:10:41.989Z,1004.93
2016-08-03T05:11:41.985Z,1004.94
2016-08-03T05:12:41.990Z,1004.99
2016-08-03T05:13:41.996Z,1005.03
2016-08-03T05:14:41.999Z,1004.98
2016-08-03T05:15:42.006Z,1004.98
2016-08-03T05:16:42.012Z,1004.94
2016-08-03T05:17:42.015Z,1004.94
2016-08-03T05:18:42.021Z,1004.94
2016-08-03T05:19:42.026Z,1004.94
2016-08-03T05:20:42.030Z,1004.95
2016-08-03T05:21:42.036Z,1004.86
2016-08-03T05:22:42.042Z,1004.84
2016-08-03T05:23:42.047Z,1004.85
2016-08-03T05:24:42.053Z,1004.84
2016-08-03T05:25:42.056Z,1004.84
2016-08-03T05:26:42.061Z,1004.81
2016-08-03T05:27:42.068Z,1004.78
2016-08-03T05:28:42.073Z,1004.8
2016-08-03T05:29:42.078Z,1004.84
2016-08-03T05:30:42.083Z,1004.77
2016-08-03T05:31:42.090Z,1004.78
2016-08-03T05:32:42.094Z,1004.8
2016-08-03T05:33:42.099Z,1004.82
2016-08-03T05:34:42.104Z,1004.83
2016-08-03T05:35:42.110Z,1004.81
2016-08-03T05:36:42.113Z,1004.81
2016-08-03T05:37:42.119Z,1004.81
2016-08-03T05:38:42.126Z,1004.83
2016-08-03T05:39:42.183Z,1004.79
2016-08-03T05:40:42.188Z,1004.79
2016-08-03T05:41:42.141Z,1004.8
2016-08-03T05:42:42.148Z,1004.82
2016-08-03T05:43:42.154Z,1004.79
2016-08-03T05:44:42.160Z,1004.79
2016-08-03T05:45:42.166Z,1004.83
2016-08-03T05:46:42.172Z,1004.83
2016-08-03T05:47:42.227Z,1004.82
2016-08-03T05:48:42.234Z,1004.84
2016-08-03T05:49:42.188Z,1004.83
2016-08-03T05:50:42.192Z,1004.84
2016-08-03T05:51:42.199Z,1004.84
2016-08-03T05:52:42.205Z,1004.83
2016-08-03T05:53:42.209Z,1004.85
2016-08-03T05:54:42.265Z,1004.9
2016-08-03T05:55:42.220Z,1004.88
2016-08-03T05:56:42.227Z,1004.82
2016-08-03T05:57:42.235Z,1004.82
2016-08-03T05:58:42.594Z,1004.84
2016-08-03T05:59:42.243Z,1004.82
2016-08-03T06:00:42.250Z,1004.83
2016-08-03T06:01:42.254Z,1004.81
2016-08-03T06:02:42.259Z,1004.87
2016-08-03T06:03:42.263Z,1004.83
2016-08-03T06:04:42.272Z,1004.88
2016-08-03T06:05:42.275Z,1004.93
2016-08-03T06:06:42.282Z,1004.87
2016-08-03T06:07:42.287Z,1004.85
2016-08-03T06:08:42.292Z,1004.86
2016-08-03T06:09:42.498Z,1004.86
2016-08-03T06:10:42.304Z,1004.79
2016-08-03T06:11:42.310Z,1004.81
2016-08-03T06:12:42.315Z,1004.83
2016-08-03T06:13:42.319Z,1004.84
2016-08-03T06:14:42.324Z,1004.81
2016-08-03T06:15:42.330Z,1004.82
2016-08-03T06:16:42.335Z,1004.79
2016-08-03T06:17:42.341Z,1004.78
2016-08-03T06:18:42.347Z,1004.82
2016-08-03T06:19:42.352Z,1004.79
2016-08-03T06:20:42.806Z,1004.81
2016-08-03T06:21:42.366Z,1004.8
2016-08-03T06:22:42.368Z,1004.79
2016-08-03T06:23:42.373Z,1004.8
2016-08-03T06:24:42.378Z,1004.8
2016-08-03T06:25:42.383Z,1004.8
2016-08-03T06:26:42.390Z,1004.81
2016-08-03T06:27:42.394Z,1004.77
2016-08-03T06:28:42.399Z,1004.73
2016-08-03T06:29:42.404Z,1004.73
2016-08-03T06:30:42.413Z,1004.73
2016-08-03T06:31:42.914Z,1004.76
2016-08-03T06:32:42.421Z,1004.71
2016-08-03T06:33:42.428Z,1004.73
2016-08-03T06:34:42.483Z,1004.74
2016-08-03T06:35:42.438Z,1004.71
2016-08-03T06:36:42.442Z,1004.68
2016-08-03T06:37:42.449Z,1004.7
2016-08-03T06:38:42.503Z,1004.72
2016-08-03T06:39:42.458Z,1004.73
2016-08-03T06:40:42.466Z,1004.69
2016-08-03T06:41:42.470Z,1004.7
2016-08-03T06:42:43.175Z,1004.72
2016-08-03T06:43:42.481Z,1004.66
2016-08-03T06:44:42.486Z,1004.66
2016-08-03T06:45:42.491Z,1004.62
2016-08-03T06:46:42.497Z,1004.66
2016-08-03T06:47:42.502Z,1004.55
2016-08-03T06:48:42.509Z,1004.56
2016-08-03T06:49:42.511Z,1004.6
2016-08-03T06:50:42.519Z,1004.7
2016-08-03T06:51:42.523Z,1004.71
2016-08-03T06:52:42.530Z,1004.73
2016-08-03T06:53:43.334Z,1004.77
2016-08-03T06:54:42.543Z,1004.77
2016-08-03T06:55:42.546Z,1004.71
2016-08-03T06:56:42.551Z,1004.76
2016-08-03T06:57:42.555Z,1004.76
2016-08-03T06:58:42.562Z,1004.72
2016-08-03T06:59:42.568Z,1004.73
2016-08-03T07:00:42.572Z,1004.64
2016-08-03T07:01:42.577Z,1004.74
2016-08-03T07:02:42.584Z,1004.73
2016-08-03T07:03:42.590Z,1004.69
2016-08-03T07:04:43.394Z,1004.68
2016-08-03T07:05:42.600Z,1004.66
2016-08-03T07:06:42.608Z,1004.72
2016-08-03T07:07:42.613Z,1004.72
2016-08-03T07:08:42.618Z,1004.72
2016-08-03T07:09:42.623Z,1004.77
2016-08-03T07:10:42.680Z,1004.8
2016-08-03T07:11:42.634Z,1004.8
2016-08-03T07:12:42.640Z,1004.77
2016-08-03T07:13:42.647Z,1004.82
2016-08-03T07:14:42.651Z,1004.75
2016-08-03T07:15:43.657Z,1004.83
2016-08-03T07:16:42.661Z,1004.76
2016-08-03T07:17:42.718Z,1004.78
2016-08-03T07:18:42.674Z,1004.77
2016-08-03T07:19:42.681Z,1004.74
2016-08-03T07:20:42.686Z,1004.74
2016-08-03T07:21:42.690Z,1004.72
2016-08-03T07:22:42.696Z,1004.77
2016-08-03T07:23:42.701Z,1004.77
2016-08-03T07:24:42.707Z,1004.8
2016-08-03T07:25:42.719Z,1004.84
2016-08-03T07:26:43.846Z,1004.81
2016-08-03T07:27:42.723Z,1004.83
2016-08-03T07:28:42.730Z,1004.89
2016-08-03T07:29:42.734Z,1004.88
2016-08-03T07:30:42.740Z,1004.84
2016-08-03T07:31:42.745Z,1004.85
2016-08-03T07:32:42.749Z,1004.84
2016-08-03T07:33:42.755Z,1004.83
2016-08-03T07:34:42.762Z,1004.86
2016-08-03T07:35:42.766Z,1004.84
2016-08-03T07:36:42.773Z,1004.84
2016-08-03T07:37:42.778Z,1004.82
2016-08-03T07:38:42.783Z,1004.83
2016-08-03T07:39:42.789Z,1004.83
2016-08-03T07:40:42.794Z,1004.88
2016-08-03T07:41:42.799Z,1004.79
2016-08-03T07:42:42.805Z,1004.84
2016-08-03T07:43:42.810Z,1004.86
2016-08-03T07:44:42.813Z,1004.85
2016-08-03T07:45:42.820Z,1004.9
2016-08-03T07:46:42.826Z,1004.85
2016-08-03T07:47:42.931Z,1004.85
2016-08-03T07:48:42.838Z,1004.88
2016-08-03T07:49:42.842Z,1004.92
2016-08-03T07:50:42.848Z,1004.89
2016-08-03T07:51:42.850Z,1004.9
2016-08-03T07:52:42.860Z,1004.87
2016-08-03T07:53:42.865Z,1004.86
2016-08-03T07:54:42.872Z,1004.92
2016-08-03T07:55:42.877Z,1004.93
2016-08-03T07:56:42.882Z,1004.9
2016-08-03T07:57:43.087Z,1004.86
2016-08-03T07:58:42.894Z,1004.86
2016-08-03T07:59:42.900Z,1004.84
2016-08-03T08:00:42.907Z,1004.81
2016-08-03T08:01:42.912Z,1004.77
2016-08-03T08:02:42.918Z,1004.83
2016-08-03T08:03:42.923Z,1004.81
2016-08-03T08:04:42.930Z,1004.8
2016-08-03T08:05:42.936Z,1004.76
2016-08-03T08:06:42.942Z,1004.76
2016-08-03T08:07:42.948Z,1004.75
2016-08-03T08:08:43.354Z,1004.79
2016-08-03T08:09:42.960Z,1004.79
2016-08-03T08:10:42.965Z,1004.87
2016-08-03T08:11:42.970Z,1004.77
2016-08-03T08:12:42.979Z,1004.8
2016-08-03T08:13:42.983Z,1004.8
2016-08-03T08:14:42.989Z,1004.78
2016-08-03T08:15:42.996Z,1004.8
2016-08-03T08:16:43.052Z,1004.76
2016-08-03T08:17:43.006Z,1004.82
2016-08-03T08:18:43.014Z,1004.8
2016-08-03T08:19:43.471Z,1004.77
2016-08-03T08:20:43.028Z,1004.71
2016-08-03T08:21:43.032Z,1004.71
2016-08-03T08:22:43.038Z,1004.74
2016-08-03T08:23:43.045Z,1004.76
2016-08-03T08:24:43.052Z,1004.8
2016-08-03T08:25:43.057Z,1004.77
2016-08-03T08:26:43.064Z,1004.73
2016-08-03T08:27:43.119Z,1004.77
2016-08-03T08:28:43.075Z,1004.78
2016-08-03T08:29:43.083Z,1004.77
2016-08-03T08:30:44.040Z,1004.8
2016-08-03T08:31:43.095Z,1004.78
2016-08-03T08:32:43.100Z,1004.77
2016-08-03T08:33:43.105Z,1004.77
2016-08-03T08:34:43.112Z,1004.77
2016-08-03T08:35:43.117Z,1004.81
2016-08-03T08:36:43.121Z,1004.76
2016-08-03T08:37:43.129Z,1004.78
2016-08-03T08:38:43.137Z,1004.82
2016-08-03T08:39:43.191Z,1004.81
2016-08-03T08:40:43.148Z,1004.78
2016-08-03T08:41:44.253Z,1004.86
2016-08-03T08:42:43.159Z,1004.79
2016-08-03T08:43:43.164Z,1004.85
2016-08-03T08:44:43.221Z,1004.81
2016-08-03T08:45:43.177Z,1004.78
2016-08-03T08:46:43.181Z,1004.73
2016-08-03T08:47:43.187Z,1004.72
2016-08-03T08:48:43.191Z,1004.76
2016-08-03T08:49:43.197Z,1004.75
2016-08-03T08:50:43.204Z,1004.78
2016-08-03T08:51:43.209Z,1004.71
2016-08-03T08:52:44.354Z,1004.75
2016-08-03T08:53:43.222Z,1004.73
2016-08-03T08:54:43.228Z,1004.77
2016-08-03T08:55:43.234Z,1004.74
2016-08-03T08:56:43.240Z,1004.73
2016-08-03T08:57:43.246Z,1004.77
2016-08-03T08:58:43.252Z,1004.77
2016-08-03T08:59:43.307Z,1004.73
2016-08-03T09:00:43.313Z,1004.71
2016-08-03T09:01:43.268Z,1004.74
2016-08-03T09:02:43.277Z,1004.75
2016-08-03T09:03:43.281Z,1004.73
2016-08-03T09:04:43.287Z,1004.72
2016-08-03T09:05:43.292Z,1004.8
2016-08-03T09:06:43.348Z,1004.71
2016-08-03T09:07:43.303Z,1004.75
2016-08-03T09:08:43.361Z,1004.77
2016-08-03T09:09:43.315Z,1004.79
2016-08-03T09:10:43.322Z,1004.79
2016-08-03T09:11:43.328Z,1004.82
2016-08-03T09:12:43.334Z,1004.84
2016-08-03T09:13:43.340Z,1004.79
2016-08-03T09:14:43.344Z,1004.8
2016-08-03T09:15:43.351Z,1004.8
2016-08-03T09:16:43.358Z,1004.78
2016-08-03T09:17:43.364Z,1004.83
2016-08-03T09:18:43.369Z,1004.82
2016-08-03T09:19:43.374Z,1004.81
2016-08-03T09:20:43.380Z,1004.79
2016-08-03T09:21:43.385Z,1004.76
2016-08-03T09:22:43.394Z,1004.75
2016-08-03T09:23:43.398Z,1004.79
2016-08-03T09:24:43.403Z,1004.72
2016-08-03T09:25:43.410Z,1004.76
2016-08-03T09:26:43.414Z,1004.8
2016-08-03T09:27:43.421Z,1004.74
2016-08-03T09:28:43.428Z,1004.75
2016-08-03T09:29:43.431Z,1004.72
2016-08-03T09:30:43.437Z,1004.73
2016-08-03T09:31:43.444Z,1004.68
2016-08-03T09:32:43.449Z,1004.7
2016-08-03T09:33:43.455Z,1004.66
2016-08-03T09:34:43.460Z,1004.71
2016-08-03T09:35:43.466Z,1004.67
2016-08-03T09:36:43.471Z,1004.66
2016-08-03T09:37:43.476Z,1004.63
2016-08-03T09:38:43.483Z,1004.68
2016-08-03T09:39:44.539Z,1004.67
2016-08-03T09:40:43.494Z,1004.71
2016-08-03T09:41:43.499Z,1004.68
2016-08-03T09:42:43.507Z,1004.63
2016-08-03T09:43:43.510Z,1004.67
2016-08-03T09:44:43.519Z,1004.68
2016-08-03T09:45:43.523Z,1004.69
2016-08-03T09:46:43.534Z,1004.71
2016-08-03T09:47:43.536Z,1004.61
2016-08-03T09:48:43.541Z,1004.64
2016-08-03T09:49:43.546Z,1004.61
2016-08-03T09:50:43.553Z,1004.65
2016-08-03T09:51:43.559Z,1004.65
2016-08-03T09:52:43.562Z,1004.68
2016-08-03T09:53:43.569Z,1004.67
2016-08-03T09:54:43.581Z,1004.64
2016-08-03T09:55:43.581Z,1004.63
2016-08-03T09:56:43.588Z,1004.67
2016-08-03T09:57:43.593Z,1004.7
2016-08-03T09:58:43.600Z,1004.72
2016-08-03T09:59:43.604Z,1004.7
2016-08-03T10:00:43.610Z,1004.69
2016-08-03T10:01:43.617Z,1004.72
2016-08-03T10:02:43.622Z,1004.72
2016-08-03T10:03:43.629Z,1004.76
2016-08-03T10:04:43.633Z,1004.76
2016-08-03T10:05:43.641Z,1004.71
2016-08-03T10:06:43.647Z,1004.72
2016-08-03T10:07:43.651Z,1004.74
2016-08-03T10:08:43.659Z,1004.73
2016-08-03T10:09:43.664Z,1004.72
2016-08-03T10:10:43.671Z,1004.76
2016-08-03T10:11:43.877Z,1004.71
2016-08-03T10:12:43.682Z,1004.7
2016-08-03T10:13:43.687Z,1004.72
2016-08-03T10:14:43.696Z,1004.71
2016-08-03T10:15:43.701Z,1004.72
2016-08-03T10:16:43.705Z,1004.78
2016-08-03T10:17:43.760Z,1004.79
2016-08-03T10:18:43.768Z,1004.74
2016-08-03T10:19:43.826Z,1004.83
2016-08-03T10:20:43.730Z,1004.83
2016-08-03T10:21:43.785Z,1004.85
2016-08-03T10:22:44.193Z,1004.83
2016-08-03T10:23:43.748Z,1004.87
2016-08-03T10:24:43.754Z,1004.92
2016-08-03T10:25:43.759Z,1004.91
2016-08-03T10:26:43.764Z,1004.91
2016-08-03T10:27:43.772Z,1004.89
2016-08-03T10:28:43.777Z,1004.87
2016-08-03T10:29:43.785Z,1004.91
2016-08-03T10:30:43.839Z,1004.95
2016-08-03T10:31:43.796Z,1004.98
2016-08-03T10:32:43.801Z,1004.92
2016-08-03T10:33:44.508Z,1005
2016-08-03T10:34:43.813Z,1004.96
2016-08-03T10:35:43.818Z,1005
2016-08-03T10:36:43.824Z,1004.93
2016-08-03T10:37:43.829Z,1004.96
2016-08-03T10:38:43.837Z,1004.99
2016-08-03T10:39:43.843Z,1004.95
2016-08-03T10:40:43.847Z,1004.97
2016-08-03T10:41:43.855Z,1004.98
2016-08-03T10:42:43.860Z,1004.98
2016-08-03T10:43:43.865Z,1005.02
2016-08-03T10:44:44.923Z,1005.06
2016-08-03T10:45:43.877Z,1005.07
2016-08-03T10:46:43.885Z,1005.11
2016-08-03T10:47:43.890Z,1005.16
2016-08-03T10:48:43.897Z,1005.13
2016-08-03T10:49:43.902Z,1005.16
2016-08-03T10:50:43.908Z,1005.1
2016-08-03T10:51:43.915Z,1005.09
2016-08-03T10:52:43.920Z,1005.11
2016-08-03T10:53:43.926Z,1005.1
2016-08-03T10:54:43.932Z,1005.05
2016-08-03T10:55:43.937Z,1005.07
2016-08-03T10:56:43.942Z,1005.03
2016-08-03T10:57:43.949Z,1005.06
2016-08-03T10:58:43.953Z,1005.04
2016-08-03T10:59:43.961Z,1004.99
2016-08-03T11:00:43.967Z,1004.95
2016-08-03T11:01:43.971Z,1004.99
2016-08-03T11:02:43.978Z,1004.99
2016-08-03T11:03:43.985Z,1004.93
2016-08-03T11:04:44.141Z,1004.91
2016-08-03T11:05:43.996Z,1004.91
2016-08-03T11:06:44.002Z,1004.9
2016-08-03T11:07:44.019Z,1004.83
2016-08-03T11:08:44.013Z,1004.82
2016-08-03T11:09:44.019Z,1004.76
2016-08-03T11:10:44.024Z,1004.71
2016-08-03T11:11:44.032Z,1004.56
2016-08-03T11:12:44.037Z,1004.58
2016-08-03T11:13:44.044Z,1004.59
2016-08-03T11:14:44.049Z,1004.62
2016-08-03T11:15:44.504Z,1004.73
2016-08-03T11:16:44.060Z,1004.76
2016-08-03T11:17:44.065Z,1004.76
2016-08-03T11:18:44.072Z,1004.78
2016-08-03T11:19:44.079Z,1004.78
2016-08-03T11:20:44.083Z,1004.73
2016-08-03T11:21:44.090Z,1004.77
2016-08-03T11:22:44.096Z,1004.84
2016-08-03T11:23:44.101Z,1004.81
2016-08-03T11:24:44.107Z,1004.76
2016-08-03T11:25:44.111Z,1004.72
2016-08-03T11:26:44.870Z,1004.76
2016-08-03T11:27:44.125Z,1004.77
2016-08-03T11:28:44.132Z,1004.75
2016-08-03T11:29:44.137Z,1004.84
2016-08-03T11:30:44.140Z,1004.8
2016-08-03T11:31:44.147Z,1004.87
2016-08-03T11:32:44.153Z,1004.85
2016-08-03T11:33:44.158Z,1004.87
2016-08-03T11:34:44.163Z,1004.88
2016-08-03T11:35:44.169Z,1004.9
2016-08-03T11:36:44.225Z,1004.9
2016-08-03T11:37:45.279Z,1004.86
2016-08-03T11:38:44.186Z,1004.85
2016-08-03T11:39:44.193Z,1004.86
2016-08-03T11:40:44.199Z,1004.88
2016-08-03T11:41:44.254Z,1004.91
2016-08-03T11:42:44.209Z,1004.96
2016-08-03T11:43:44.214Z,1004.95
2016-08-03T11:44:44.221Z,1004.94
2016-08-03T11:45:44.226Z,1004.91
2016-08-03T11:46:44.232Z,1004.93
2016-08-03T11:47:44.288Z,1004.92
2016-08-03T11:48:44.244Z,1004.86
2016-08-03T11:49:44.247Z,1004.93
2016-08-03T11:50:44.254Z,1005
2016-08-03T11:51:44.260Z,1004.97
2016-08-03T11:52:44.266Z,1004.92
2016-08-03T11:53:44.273Z,1004.92
2016-08-03T11:54:44.276Z,1004.86
2016-08-03T11:55:44.282Z,1004.88
2016-08-03T11:56:44.288Z,1004.82
2016-08-03T11:57:44.293Z,1004.77
2016-08-03T11:58:44.299Z,1004.84
2016-08-03T11:59:44.354Z,1004.86
2016-08-03T12:00:44.308Z,1004.83
2016-08-03T12:01:44.315Z,1004.8
2016-08-03T12:02:44.322Z,1004.8
2016-08-03T12:03:44.377Z,1004.83
2016-08-03T12:04:44.334Z,1004.82
2016-08-03T12:05:44.339Z,1004.8
2016-08-03T12:06:44.346Z,1004.86
2016-08-03T12:07:44.349Z,1004.83
2016-08-03T12:08:44.355Z,1004.86
2016-08-03T12:09:44.361Z,1004.88
2016-08-03T12:10:44.418Z,1004.9
2016-08-03T12:11:44.372Z,1004.91
2016-08-03T12:12:44.377Z,1004.98
2016-08-03T12:13:44.384Z,1005
2016-08-03T12:14:44.389Z,1004.97